Time;durP1;ratioP1;P1;durP2;ratioP2;P2;SDS_P1;SDS_P2;PMS_P1;PMS_P2;Temp;Humidity;BMP_temperature;BMP_pressure;BME280_temperature;BME280_humidity;BME280_pressure;Samples;Min_cycle;Max_cycle;Signal;HPM_P1;HPM_P2
2021/09/07 00:00:24;;;;;;;32.15;26.08;;;15.50;99.90;;;;;;4210996;28;20479;-73
2021/09/07 00:02:25;;;;;;;30.85;25.17;;;15.50;99.90;;;;;;4210165;28;20032;-73
2021/09/07 00:04:29;;;;;;;27.30;23.85;;;15.50;99.90;;;;;;4200740;28;20217;-73
2021/09/07 00:06:29;;;;;;;35.42;27.38;;;15.50;99.90;;;;;;4209266;28;20394;-74
2021/09/07 00:08:30;;;;;;;32.58;25.63;;;15.50;99.90;;;;;;4188304;28;20056;-73
2021/09/07 00:10:31;;;;;;;31.42;23.88;;;15.50;99.90;;;;;;4207605;28;20044;-74
2021/09/07 00:12:32;;;;;;;33.63;26.40;;;15.60;99.90;;;;;;4204091;28;20419;-74
2021/09/07 00:14:33;;;;;;;33.13;23.77;;;15.60;99.90;;;;;;4190461;28;20495;-73
2021/09/07 00:16:33;;;;;;;28.20;22.90;;;15.60;99.90;;;;;;4211566;28;20043;-74
2021/09/07 00:18:34;;;;;;;32.40;25.52;;;15.60;99.90;;;;;;4197091;28;20047;-73
2021/09/07 00:20:35;;;;;;;36.60;27.75;;;15.70;99.90;;;;;;4187397;28;20554;-73
2021/09/07 00:22:36;;;;;;;34.10;24.02;;;15.60;99.90;;;;;;4209540;28;20036;-73
2021/09/07 00:24:37;;;;;;;27.42;22.05;;;15.70;99.90;;;;;;4193837;28;20032;-74
2021/09/07 00:26:37;;;;;;;37.42;26.05;;;15.70;99.90;;;;;;4211058;28;20491;-74
2021/09/07 00:28:38;;;;;;;36.63;26.70;;;15.70;99.90;;;;;;4212058;28;20043;-74
2021/09/07 00:30:39;;;;;;;34.75;26.35;;;15.70;99.90;;;;;;4210058;28;20028;-74
2021/09/07 00:32:39;;;;;;;38.97;26.75;;;15.80;99.90;;;;;;4210034;28;20082;-74
2021/09/07 00:34:40;;;;;;;31.92;24.70;;;15.80;99.90;;;;;;4192221;28;20048;-75
2021/09/07 00:36:41;;;;;;;32.95;25.73;;;15.80;99.90;;;;;;4211491;28;20047;-73
2021/09/07 00:38:42;;;;;;;31.33;25.48;;;15.80;99.90;;;;;;4193511;28;20044;-74
2021/09/07 00:40:42;;;;;;;32.78;27.10;;;15.80;99.90;;;;;;4214789;28;20475;-74
2021/09/07 00:42:43;;;;;;;32.38;23.42;;;15.80;99.90;;;;;;4213003;28;20368;-74
2021/09/07 00:44:44;;;;;;;30.25;23.73;;;15.70;99.90;;;;;;4208074;28;20144;-74
2021/09/07 00:46:49;;;;;;;30.55;24.92;;;15.70;99.90;;;;;;4196585;28;20036;-74
2021/09/07 00:48:50;;;;;;;34.03;26.35;;;15.70;99.90;;;;;;4215086;28;20024;-73
2021/09/07 00:50:50;;;;;;;32.65;24.42;;;15.60;99.90;;;;;;4211530;28;20065;-73
2021/09/07 00:52:52;;;;;;;34.90;25.92;;;15.50;99.90;;;;;;4206663;28;20460;-74
2021/09/07 00:54:55;;;;;;;35.90;26.27;;;15.40;99.90;;;;;;4210458;28;20043;-73
2021/09/07 00:56:57;;;;;;;39.33;29.80;;;15.30;99.90;;;;;;4193014;28;20454;-73
2021/09/07 00:58:58;;;;;;;38.25;26.02;;;15.20;99.90;;;;;;4194514;28;20048;-75
2021/09/07 01:00:59;;;;;;;38.72;26.38;;;15.10;99.90;;;;;;4212197;28;20028;-73
2021/09/07 01:03:00;;;;;;;33.22;25.20;;;15.00;99.90;;;;;;4195141;28;20044;-73
2021/09/07 01:05:00;;;;;;;33.35;26.45;;;14.20;99.90;;;;;;4212850;28;20027;-72
2021/09/07 01:07:02;;;;;;;35.58;25.83;;;14.80;99.90;;;;;;4210704;28;20086;-72
2021/09/07 01:09:05;;;;;;;41.20;27.97;;;14.60;99.90;;;;;;4195252;28;20025;-72
2021/09/07 01:11:06;;;;;;;34.35;26.95;;;14.60;99.90;;;;;;4194234;28;20888;-72
2021/09/07 01:13:06;;;;;;;37.50;25.65;;;14.50;99.90;;;;;;4191062;28;20056;-73
2021/09/07 01:15:07;;;;;;;39.05;27.58;;;14.50;99.90;;;;;;4208467;28;20794;-73
2021/09/07 01:17:17;;;;;;;37.75;28.48;;;14.40;99.90;;;;;;4208577;28;20546;-74
2021/09/07 01:19:18;;;;;;;37.80;26.48;;;14.30;99.90;;;;;;4210276;28;20388;-74
2021/09/07 01:21:19;;;;;;;39.90;26.70;;;14.30;99.90;;;;;;4191829;28;20035;-74
2021/09/07 01:23:20;;;;;;;36.55;26.88;;;14.20;99.90;;;;;;4193803;28;20074;-75
2021/09/07 01:25:20;;;;;;;40.97;29.30;;;14.20;99.90;;;;;;4207976;28;20036;-74
2021/09/07 01:27:22;;;;;;;39.67;28.95;;;14.00;99.90;;;;;;4187608;28;20165;-75
2021/09/07 01:29:22;;;;;;;37.72;27.27;;;14.00;99.90;;;;;;4202101;28;20033;-74
2021/09/07 01:31:23;;;;;;;36.55;27.50;;;13.90;99.90;;;;;;4188655;28;20098;-74
2021/09/07 01:33:25;;;;;;;44.35;26.92;;;13.90;99.90;;;;;;4200835;28;20086;-74
2021/09/07 01:35:26;;;;;;;42.78;30.33;;;13.90;99.90;;;;;;4206770;28;20036;-74
2021/09/07 01:37:27;;;;;;;50.42;32.75;;;13.90;99.90;;;;;;4203048;28;20032;-74
2021/09/07 01:39:27;;;;;;;49.00;33.78;;;13.80;99.90;;;;;;4190553;28;20039;-73
2021/09/07 01:41:28;;;;;;;47.50;31.25;;;13.80;99.90;;;;;;4203359;28;21668;-73
2021/09/07 01:43:29;;;;;;;54.97;35.58;;;13.80;99.90;;;;;;4189094;28;20106;-73
2021/09/07 01:45:29;;;;;;;51.13;33.30;;;13.80;99.90;;;;;;4201917;28;20656;-74
2021/09/07 01:47:30;;;;;;;46.03;31.08;;;13.70;99.90;;;;;;4188526;28;20090;-74
2021/09/07 01:49:31;;;;;;;48.05;29.95;;;13.70;99.90;;;;;;4202585;28;20048;-74
2021/09/07 01:51:32;;;;;;;47.40;32.13;;;13.60;99.90;;;;;;4190821;28;20807;-74
2021/09/07 01:53:33;;;;;;;39.70;29.35;;;13.60;99.90;;;;;;4200288;28;20032;-74
2021/09/07 01:55:34;;;;;;;46.63;31.13;;;13.70;99.90;;;;;;4192683;28;21507;-74
2021/09/07 01:57:34;;;;;;;48.30;32.50;;;13.70;99.90;;;;;;4205258;28;20028;-74
2021/09/07 01:59:35;;;;;;;51.83;33.67;;;13.80;99.90;;;;;;4208253;28;20415;-74
2021/09/07 02:01:36;;;;;;;48.78;35.22;;;13.90;99.90;;;;;;4199721;28;20040;-74
2021/09/07 02:03:37;;;;;;;52.05;33.78;;;13.90;99.90;;;;;;4207393;28;20116;-74
2021/09/07 02:05:37;;;;;;;45.20;31.58;;;14.00;99.90;;;;;;4198634;28;20056;-74
2021/09/07 02:07:38;;;;;;;44.92;31.63;;;14.10;99.90;;;;;;4211167;28;20028;-73
2021/09/07 02:09:39;;;;;;;42.75;30.35;;;14.10;99.90;;;;;;4208962;28;20483;-73
2021/09/07 02:11:39;;;;;;;48.78;34.88;;;14.20;99.90;;;;;;4209680;28;20633;-74
2021/09/07 02:13:40;;;;;;;40.88;29.05;;;14.30;99.90;;;;;;4208109;28;20066;-74
2021/09/07 02:15:41;;;;;;;44.28;30.95;;;14.40;99.90;;;;;;4190300;28;20037;-74
2021/09/07 02:17:42;;;;;;;50.10;33.35;;;14.40;99.90;;;;;;4207174;28;20103;-73
2021/09/07 02:19:43;;;;;;;50.10;31.45;;;14.50;99.90;;;;;;4195197;28;20480;-74
2021/09/07 02:21:43;;;;;;;43.45;31.73;;;14.50;99.90;;;;;;4213082;28;20124;-73
2021/09/07 02:23:44;;;;;;;50.67;31.38;;;14.60;99.90;;;;;;4211320;28;20078;-73
2021/09/07 02:25:44;;;;;;;45.85;34.53;;;14.60;99.90;;;;;;4211405;28;20468;-74
2021/09/07 02:27:45;;;;;;;42.38;29.25;;;14.60;99.90;;;;;;4191067;28;20037;-74
2021/09/07 02:29:46;;;;;;;45.75;32.97;;;14.70;99.90;;;;;;4187955;28;20033;-76
2021/09/07 02:31:47;;;;;;;54.05;34.38;;;14.70;99.90;;;;;;4210280;28;20039;-73
2021/09/07 02:33:47;;;;;;;44.03;32.03;;;14.70;99.90;;;;;;4211264;28;20153;-73
2021/09/07 02:35:48;;;;;;;40.53;31.05;;;14.80;99.90;;;;;;4191382;28;20033;-73
2021/09/07 02:37:49;;;;;;;38.67;30.25;;;14.80;99.90;;;;;;4190295;28;20036;-73
2021/09/07 02:39:49;;;;;;;46.88;32.95;;;14.80;99.90;;;;;;4212221;28;20078;-73
2021/09/07 02:41:50;;;;;;;39.25;30.90;;;14.80;99.90;;;;;;4212379;28;20065;-73
2021/09/07 02:43:51;;;;;;;46.03;30.52;;;14.80;99.90;;;;;;4209799;28;20036;-74
2021/09/07 02:45:52;;;;;;;37.83;29.73;;;14.80;99.90;;;;;;4211541;28;20035;-75
2021/09/07 02:47:53;;;;;;;34.63;28.30;;;14.80;99.90;;;;;;4195675;28;20056;-73
2021/09/07 02:49:54;;;;;;;35.53;28.60;;;14.80;99.90;;;;;;4192914;28;20036;-73
2021/09/07 02:51:55;;;;;;;40.85;30.00;;;14.90;99.90;;;;;;4194570;28;20041;-73
2021/09/07 02:53:55;;;;;;;37.97;29.02;;;14.90;99.90;;;;;;4190379;28;20484;-73
2021/09/07 02:55:56;;;;;;;34.05;25.45;;;14.90;99.90;;;;;;4210449;28;20040;-73
2021/09/07 02:57:56;;;;;;;50.15;28.70;;;14.90;99.90;;;;;;4195071;28;20025;-74
2021/09/07 02:59:57;;;;;;;42.05;31.52;;;14.90;99.90;;;;;;4210467;28;20054;-73
2021/09/07 03:01:58;;;;;;;44.30;32.45;;;14.90;99.90;;;;;;4209886;28;20402;-73
2021/09/07 03:03:58;;;;;;;39.65;29.27;;;14.90;99.90;;;;;;4210810;28;20035;-74
2021/09/07 03:06:01;;;;;;;42.78;32.42;;;14.90;99.90;;;;;;4208558;28;20036;-74
2021/09/07 03:08:01;;;;;;;37.10;30.23;;;14.90;99.90;;;;;;4210531;28;20069;-73
2021/09/07 03:10:02;;;;;;;43.75;30.80;;;14.90;99.90;;;;;;4193823;28;20396;-73
2021/09/07 03:12:03;;;;;;;37.90;28.65;;;14.80;99.90;;;;;;4210877;28;20035;-73
2021/09/07 03:14:04;;;;;;;46.65;30.38;;;14.80;99.90;;;;;;4210106;28;20366;-73
2021/09/07 03:16:05;;;;;;;44.58;32.80;;;14.70;99.90;;;;;;4194097;28;20089;-74
2021/09/07 03:18:05;;;;;;;38.72;28.85;;;14.60;99.90;;;;;;4211291;28;20032;-73
2021/09/07 03:20:06;;;;;;;37.85;27.98;;;14.60;99.90;;;;;;4211748;28;20471;-73
2021/09/07 03:22:07;;;;;;;39.70;31.25;;;14.50;99.90;;;;;;4190489;28;20049;-74
2021/09/07 03:24:08;;;;;;;44.38;31.00;;;14.50;99.90;;;;;;4211156;28;20124;-73
2021/09/07 03:26:09;;;;;;;44.17;30.00;;;14.40;99.90;;;;;;4207680;28;20602;-74
2021/09/07 03:28:10;;;;;;;43.10;29.80;;;14.30;99.90;;;;;;4212419;28;20035;-73
2021/09/07 03:30:11;;;;;;;38.00;28.80;;;14.20;99.90;;;;;;4210867;28;20036;-74
2021/09/07 03:32:11;;;;;;;48.92;33.72;;;14.00;99.90;;;;;;4211292;28;20028;-74
2021/09/07 03:34:12;;;;;;;43.28;32.15;;;14.00;99.90;;;;;;4209915;28;20098;-74
2021/09/07 03:36:12;;;;;;;42.78;32.35;;;13.90;99.90;;;;;;4209208;28;20579;-74
2021/09/07 03:38:13;;;;;;;42.35;32.95;;;14.00;99.90;;;;;;4210078;28;20032;-74
2021/09/07 03:40:14;;;;;;;43.33;30.50;;;13.90;99.90;;;;;;4208732;28;20028;-73
2021/09/07 03:42:15;;;;;;;50.10;34.22;;;13.90;99.90;;;;;;4193755;28;20040;-74
2021/09/07 03:44:15;;;;;;;47.33;34.75;;;13.90;99.90;;;;;;4200434;28;20040;-74
2021/09/07 03:46:16;;;;;;;50.28;31.38;;;13.80;99.90;;;;;;4208255;28;20058;-74
2021/09/07 03:48:17;;;;;;;44.00;32.70;;;13.80;99.90;;;;;;4191564;28;20365;-74
2021/09/07 03:50:18;;;;;;;52.00;34.25;;;13.70;99.90;;;;;;4192116;28;20029;-74
2021/09/07 03:52:18;;;;;;;47.80;32.63;;;13.70;99.90;;;;;;4192001;28;20403;-73
2021/09/07 03:54:19;;;;;;;49.70;32.85;;;13.60;99.90;;;;;;4209799;28;20025;-73
2021/09/07 03:56:20;;;;;;;51.75;33.65;;;13.60;99.90;;;;;;4203250;28;20036;-73
2021/09/07 03:58:20;;;;;;;48.42;33.92;;;13.50;99.90;;;;;;4210324;28;20032;-74
2021/09/07 04:00:21;;;;;;;52.33;33.20;;;13.50;99.90;;;;;;4203741;28;20056;-74
2021/09/07 04:02:21;;;;;;;50.97;35.30;;;13.40;99.90;;;;;;4209752;28;20036;-73
2021/09/07 04:04:24;;;;;;;53.20;35.63;;;13.40;99.90;;;;;;4211192;28;20048;-74
2021/09/07 04:06:25;;;;;;;47.08;32.22;;;13.30;99.90;;;;;;4210095;28;20406;-74
2021/09/07 04:08:26;;;;;;;47.53;32.33;;;13.30;99.90;;;;;;4211972;28;20114;-74
2021/09/07 04:10:26;;;;;;;51.08;32.78;;;13.30;99.90;;;;;;4210889;28;20028;-74
2021/09/07 04:12:27;;;;;;;47.22;33.33;;;13.20;99.90;;;;;;4211039;28;20052;-74
2021/09/07 04:14:28;;;;;;;59.85;38.25;;;13.20;99.90;;;;;;4197218;28;20048;-73
2021/09/07 04:16:29;;;;;;;56.97;36.20;;;13.20;99.90;;;;;;4212024;28;20106;-74
2021/09/07 04:18:29;;;;;;;51.90;33.28;;;13.20;99.90;;;;;;4214365;28;20036;-74
2021/09/07 04:20:30;;;;;;;51.47;33.25;;;13.20;99.90;;;;;;4209128;28;20032;-74
2021/09/07 04:22:31;;;;;;;61.83;36.90;;;13.10;99.90;;;;;;4214147;28;20065;-74
2021/09/07 04:24:31;;;;;;;46.38;31.52;;;13.10;99.90;;;;;;4207350;28;20025;-74
2021/09/07 04:26:33;;;;;;;47.83;30.60;;;13.00;99.90;;;;;;4197271;28;20029;-74
2021/09/07 04:28:33;;;;;;;55.97;35.50;;;13.00;99.90;;;;;;4207873;28;20368;-74
2021/09/07 04:30:34;;;;;;;51.92;34.80;;;12.90;99.90;;;;;;4213390;28;20040;-74
2021/09/07 04:32:35;;;;;;;51.95;33.83;;;12.90;99.90;;;;;;4192454;28;20040;-74
2021/09/07 04:34:36;;;;;;;48.90;31.90;;;12.80;99.90;;;;;;4211519;28;20044;-74
2021/09/07 04:36:36;;;;;;;50.13;33.25;;;12.80;99.90;;;;;;4213180;28;20037;-73
2021/09/07 04:38:37;;;;;;;57.38;35.95;;;12.80;99.90;;;;;;4212292;28;20035;-73
2021/09/07 04:40:37;;;;;;;50.58;33.22;;;12.80;99.90;;;;;;4209441;28;20103;-75
2021/09/07 04:42:39;;;;;;;46.90;31.95;;;12.70;99.90;;;;;;4212898;28;20046;-75
2021/09/07 04:44:39;;;;;;;46.92;31.75;;;12.80;99.90;;;;;;4214350;28;20473;-75
2021/09/07 04:46:40;;;;;;;49.58;33.40;;;12.70;99.90;;;;;;4194983;28;20033;-74
2021/09/07 04:48:41;;;;;;;53.97;34.08;;;12.70;99.90;;;;;;4214597;28;20036;-74
2021/09/07 04:50:42;;;;;;;46.42;32.75;;;12.70;99.90;;;;;;4196727;28;20044;-74
2021/09/07 04:52:42;;;;;;;45.53;30.83;;;12.70;99.90;;;;;;4196504;28;20041;-74
2021/09/07 04:54:43;;;;;;;51.35;34.80;;;12.70;99.90;;;;;;4194784;28;20056;-74
2021/09/07 04:56:43;;;;;;;49.90;30.98;;;12.70;99.90;;;;;;4202152;28;20126;-74
2021/09/07 04:58:45;;;;;;;51.00;33.38;;;12.70;99.90;;;;;;4212203;28;20309;-74
2021/09/07 05:00:45;;;;;;;63.63;35.00;;;12.70;99.90;;;;;;4214187;28;20036;-74
2021/09/07 05:02:46;;;;;;;60.28;36.97;;;12.70;99.90;;;;;;4210938;28;20398;-74
2021/09/07 05:04:46;;;;;;;48.90;31.45;;;12.60;99.90;;;;;;4201127;28;20047;-74
2021/09/07 05:06:47;;;;;;;48.63;32.05;;;12.70;99.90;;;;;;4208264;28;20165;-73
2021/09/07 05:08:48;;;;;;;50.08;29.60;;;12.70;99.90;;;;;;4200113;28;20040;-73
2021/09/07 05:10:48;;;;;;;45.63;31.95;;;12.70;99.90;;;;;;4196488;28;20036;-73
2021/09/07 05:12:49;;;;;;;55.08;33.05;;;12.70;99.90;;;;;;4206096;28;20044;-74
2021/09/07 05:14:49;;;;;;;56.80;33.38;;;12.70;99.90;;;;;;4208715;28;20102;-74
2021/09/07 05:16:50;;;;;;;50.38;32.72;;;12.70;99.90;;;;;;4203241;28;20538;-73
2021/09/07 05:18:51;;;;;;;47.95;31.38;;;12.70;99.90;;;;;;4206078;28;20115;-74
2021/09/07 05:20:51;;;;;;;53.83;31.73;;;12.80;99.90;;;;;;4202946;28;20032;-74
2021/09/07 05:22:52;;;;;;;46.15;30.15;;;12.70;99.90;;;;;;4206201;28;20067;-74
2021/09/07 05:24:53;;;;;;;49.10;32.17;;;12.70;99.90;;;;;;4198476;28;20492;-74
2021/09/07 05:26:53;;;;;;;53.95;35.10;;;12.80;99.90;;;;;;4207106;28;20044;-74
2021/09/07 05:28:54;;;;;;;57.22;33.70;;;12.80;99.90;;;;;;4201532;28;20058;-74
2021/09/07 05:30:54;;;;;;;53.35;32.03;;;12.80;99.90;;;;;;4204165;28;20330;-74
2021/09/07 05:32:55;;;;;;;60.95;33.90;;;12.80;99.90;;;;;;4202980;28;20039;-74
2021/09/07 05:34:56;;;;;;;54.40;34.10;;;12.90;99.90;;;;;;4193977;28;20039;-74
2021/09/07 05:36:57;;;;;;;55.70;34.97;;;12.90;99.90;;;;;;4201213;28;20048;-73
2021/09/07 05:38:58;;;;;;;61.50;38.10;;;12.90;99.90;;;;;;4205627;28;20036;-74
2021/09/07 05:40:58;;;;;;;51.10;34.63;;;13.00;99.90;;;;;;4203689;28;20097;-73
2021/09/07 05:42:59;;;;;;;57.45;37.20;;;13.00;99.90;;;;;;4205920;28;20446;-74
2021/09/07 05:45:00;;;;;;;87.60;59.30;;;13.10;99.90;;;;;;4184957;28;20150;-74
2021/09/07 05:47:01;;;;;;;61.28;40.22;;;13.20;99.90;;;;;;4191147;28;20037;-74
2021/09/07 05:49:02;;;;;;;57.95;36.75;;;13.20;99.90;;;;;;4186007;28;20044;-74
2021/09/07 05:51:02;;;;;;;64.90;38.60;;;13.30;99.90;;;;;;4194030;28;20036;-74
2021/09/07 05:53:03;;;;;;;55.65;34.65;;;13.50;99.90;;;;;;4185426;28;20385;-74
2021/09/07 05:55:04;;;;;;;51.13;32.42;;;13.60;99.90;;;;;;4190876;28;20032;-73
2021/09/07 05:57:05;;;;;;;54.78;34.13;;;13.80;99.90;;;;;;4195571;28;20036;-73
2021/09/07 05:59:05;;;;;;;58.15;37.50;;;13.90;99.90;;;;;;4194484;28;20119;-73
2021/09/07 06:01:06;;;;;;;55.03;35.20;;;14.10;99.90;;;;;;4185989;28;20036;-74
2021/09/07 06:03:09;;;;;;;48.72;32.00;;;14.30;99.90;;;;;;4194795;28;20599;-72
2021/09/07 06:05:11;;;;;;;49.85;32.10;;;14.50;99.90;;;;;;4195963;28;20099;-74
2021/09/07 06:07:12;;;;;;;51.67;34.05;;;14.60;99.90;;;;;;4194819;28;20043;-74
2021/09/07 06:09:12;;;;;;;47.53;29.75;;;14.80;99.90;;;;;;4187212;28;20158;-73
2021/09/07 06:11:13;;;;;;;41.60;29.25;;;14.90;99.90;;;;;;4193132;28;20036;-74
2021/09/07 06:13:14;;;;;;;43.20;27.45;;;15.00;99.90;;;;;;4185244;28;20037;-72
2021/09/07 06:15:14;;;;;;;39.70;29.30;;;15.10;99.90;;;;;;4192361;28;20028;-73
2021/09/07 06:17:15;;;;;;;35.95;27.10;;;15.30;99.90;;;;;;4195349;28;20047;-74
2021/09/07 06:19:15;;;;;;;33.28;26.05;;;15.40;99.90;;;;;;4192186;28;20488;-74
2021/09/07 06:21:16;;;;;;;32.10;23.23;;;15.50;99.90;;;;;;4186986;28;20033;-74
2021/09/07 06:23:17;;;;;;;32.20;24.52;;;15.60;99.90;;;;;;4193657;28;20117;-75
2021/09/07 06:25:18;;;;;;;41.50;28.23;;;15.80;99.90;;;;;;4186467;28;20025;-75
2021/09/07 06:27:19;;;;;;;34.08;25.25;;;15.90;99.90;;;;;;4191288;28;20032;-74
2021/09/07 06:29:20;;;;;;;43.83;26.55;;;16.00;99.90;;;;;;4189793;28;20033;-74
2021/09/07 06:31:20;;;;;;;35.08;24.85;;;16.20;99.90;;;;;;4190301;28;20425;-74
2021/09/07 06:33:21;;;;;;;31.60;23.13;;;16.30;99.90;;;;;;4205462;28;20040;-73
2021/09/07 06:35:23;;;;;;;37.00;28.20;;;16.40;99.90;;;;;;4189777;28;20383;-74
2021/09/07 06:37:23;;;;;;;38.00;26.58;;;16.60;99.90;;;;;;4191121;28;20035;-75
2021/09/07 06:39:24;;;;;;;34.40;25.77;;;16.70;99.90;;;;;;4191107;28;20025;-74
2021/09/07 06:41:25;;;;;;;37.65;26.10;;;16.80;99.90;;;;;;4187075;28;20109;-74
2021/09/07 06:43:25;;;;;;;31.67;26.35;;;16.80;99.90;;;;;;4193448;28;20029;-74
2021/09/07 06:45:26;;;;;;;34.33;26.17;;;16.90;99.90;;;;;;4195204;28;20043;-74
2021/09/07 06:47:26;;;;;;;28.98;24.55;;;17.10;99.90;;;;;;4191152;28;20132;-73
2021/09/07 06:49:27;;;;;;;36.58;26.88;;;17.30;99.90;;;;;;4211810;28;20044;-74
2021/09/07 06:51:28;;;;;;;34.13;25.70;;;17.40;99.90;;;;;;4209107;28;20029;-73
2021/09/07 06:53:30;;;;;;;34.70;27.55;;;17.50;99.90;;;;;;4212256;28;20028;-73
2021/09/07 06:55:31;;;;;;;38.40;26.38;;;17.60;99.90;;;;;;4209121;28;20085;-74
2021/09/07 06:57:31;;;;;;;37.20;26.95;;;17.80;99.90;;;;;;4211598;28;20398;-73
2021/09/07 06:59:32;;;;;;;36.40;27.48;;;17.90;99.90;;;;;;4209168;28;20034;-74
2021/09/07 07:01:33;;;;;;;32.88;24.98;;;18.10;99.90;;;;;;4208799;28;20055;-74
2021/09/07 07:03:34;;;;;;;35.00;27.95;;;18.20;99.90;;;;;;4209754;28;20111;-72
2021/09/07 07:05:35;;;;;;;33.47;26.58;;;18.30;99.90;;;;;;4209868;28;20466;-73
2021/09/07 07:07:36;;;;;;;37.30;26.55;;;18.40;99.90;;;;;;4209551;28;20032;-73
2021/09/07 07:09:36;;;;;;;37.88;26.40;;;18.50;99.90;;;;;;4211577;28;20028;-72
2021/09/07 07:11:37;;;;;;;35.78;26.23;;;18.60;99.90;;;;;;4207185;28;20120;-73
2021/09/07 07:13:37;;;;;;;29.50;25.42;;;18.80;99.90;;;;;;4185663;28;20511;-74
2021/09/07 07:15:38;;;;;;;36.22;26.23;;;18.90;99.90;;;;;;4201957;28;20487;-73
2021/09/07 07:17:39;;;;;;;38.00;26.30;;;19.00;99.90;;;;;;4207365;28;20063;-73
2021/09/07 07:19:39;;;;;;;35.42;27.23;;;19.10;99.90;;;;;;4209695;28;20052;-73
2021/09/07 07:21:40;;;;;;;32.28;23.98;;;19.20;99.90;;;;;;4207819;28;20081;-73
2021/09/07 07:23:40;;;;;;;35.92;25.27;;;19.30;99.90;;;;;;4208545;28;20036;-73
2021/09/07 07:25:42;;;;;;;38.28;25.90;;;19.40;99.90;;;;;;4211953;28;20032;-73
2021/09/07 07:27:43;;;;;;;35.70;27.58;;;19.50;99.90;;;;;;4208204;28;20032;-72
2021/09/07 07:29:43;;;;;;;34.05;26.20;;;19.60;99.90;;;;;;4205129;28;20052;-72
2021/09/07 07:31:44;;;;;;;33.30;26.98;;;19.60;99.90;;;;;;4208062;28;20047;-73
2021/09/07 07:33:45;;;;;;;32.10;26.77;;;19.70;99.90;;;;;;4211392;28;20060;-73
2021/09/07 07:35:46;;;;;;;37.92;27.58;;;19.80;99.90;;;;;;4208413;28;20533;-73
2021/09/07 07:37:46;;;;;;;40.08;29.95;;;19.90;99.90;;;;;;4206635;28;20028;-72
2021/09/07 07:39:47;;;;;;;37.17;27.60;;;20.00;99.90;;;;;;4191288;28;20035;-73
2021/09/07 07:41:47;;;;;;;38.22;26.50;;;20.10;99.90;;;;;;4208809;28;20036;-73
2021/09/07 07:43:48;;;;;;;37.47;28.40;;;20.20;99.90;;;;;;4207442;28;20448;-73
2021/09/07 07:45:48;;;;;;;41.72;30.23;;;20.40;99.90;;;;;;4208817;28;20036;-73
2021/09/07 07:47:49;;;;;;;32.60;28.00;;;20.50;99.90;;;;;;4209874;28;20028;-73
2021/09/07 07:49:50;;;;;;;37.08;29.30;;;20.50;99.90;;;;;;4196488;28;20479;-74
2021/09/07 07:51:50;;;;;;;35.92;28.80;;;20.60;99.90;;;;;;4212324;28;20024;-73
2021/09/07 07:53:51;;;;;;;34.70;27.02;;;20.70;99.90;;;;;;4192568;28;20373;-73
2021/09/07 07:55:52;;;;;;;39.63;29.38;;;20.80;99.90;;;;;;4208561;28;20048;-76
2021/09/07 07:57:52;;;;;;;38.65;27.65;;;21.00;99.90;;;;;;4209784;28;20032;-74
2021/09/07 07:59:53;;;;;;;34.42;27.73;;;21.10;99.90;;;;;;4195786;28;20431;-72
2021/09/07 08:01:54;;;;;;;35.85;29.15;;;21.20;99.90;;;;;;4208871;28;20036;-72
2021/09/07 08:03:54;;;;;;;37.97;28.00;;;21.20;99.90;;;;;;4211932;28;20099;-72
2021/09/07 08:05:55;;;;;;;31.67;27.98;;;21.30;99.90;;;;;;4214042;28;20036;-72
2021/09/07 08:07:55;;;;;;;32.78;26.83;;;21.40;99.90;;;;;;4212056;28;20494;-73
2021/09/07 08:09:56;;;;;;;34.97;28.40;;;21.40;99.90;;;;;;4193548;28;20094;-74
2021/09/07 08:11:58;;;;;;;35.78;28.27;;;21.40;99.90;;;;;;4211741;28;20036;-73
2021/09/07 08:13:58;;;;;;;36.03;30.10;;;21.50;99.90;;;;;;4192843;28;20403;-73
2021/09/07 08:16:00;;;;;;;35.92;27.13;;;21.60;99.90;;;;;;4211565;28;20032;-73
2021/09/07 08:18:01;;;;;;;41.17;29.33;;;21.70;99.90;;;;;;4214224;28;20036;-73
2021/09/07 08:20:03;;;;;;;40.78;27.95;;;21.80;99.90;;;;;;4211763;28;20081;-73
2021/09/07 08:22:04;;;;;;;35.85;28.33;;;21.80;99.90;;;;;;4215104;28;20430;-73
2021/09/07 08:24:05;;;;;;;43.85;28.23;;;21.80;99.90;;;;;;4195280;28;20127;-73
2021/09/07 08:26:05;;;;;;;41.10;25.63;;;21.90;99.90;;;;;;4212511;28;20028;-73
2021/09/07 08:28:07;;;;;;;33.63;26.33;;;21.90;99.90;;;;;;4211856;28;20259;-73
2021/09/07 08:30:08;;;;;;;29.10;25.65;;;22.00;99.90;;;;;;4194472;28;20104;-73
2021/09/07 08:32:08;;;;;;;32.13;26.60;;;22.10;99.90;;;;;;4211299;28;20028;-73
2021/09/07 08:34:09;;;;;;;36.22;26.17;;;22.10;99.90;;;;;;4211758;28;20035;-72
2021/09/07 08:36:10;;;;;;;34.63;27.35;;;22.30;99.90;;;;;;4210894;28;20035;-73
2021/09/07 08:38:11;;;;;;;35.42;26.90;;;22.50;99.90;;;;;;4212688;28;20035;-73
2021/09/07 08:40:12;;;;;;;34.47;26.55;;;22.50;99.90;;;;;;4209049;28;20429;-72
2021/09/07 08:42:12;;;;;;;31.02;25.23;;;22.80;99.90;;;;;;4212588;28;20028;-73
2021/09/07 08:44:17;;;;;;;33.53;26.30;;;23.10;99.90;;;;;;4210189;28;20028;-73
2021/09/07 08:46:19;;;;;;;35.63;25.73;;;23.40;99.90;;;;;;4202311;28;20024;-74
2021/09/07 08:48:22;;;;;;;32.22;26.55;;;23.50;99.90;;;;;;4211011;28;20051;-74
2021/09/07 08:50:23;;;;;;;32.58;24.42;;;23.60;99.90;;;;;;4211279;28;20020;-73
2021/09/07 08:52:25;;;;;;;29.30;24.75;;;23.80;99.90;;;;;;4209930;28;20160;-73
2021/09/07 08:54:25;;;;;;;34.40;25.92;;;23.70;99.90;;;;;;4203588;28;20120;-73
2021/09/07 08:56:27;;;;;;;29.15;24.50;;;23.80;99.90;;;;;;4210247;28;20056;-74
2021/09/07 08:58:27;;;;;;;31.20;24.77;;;23.90;99.90;;;;;;4213035;28;20039;-72
2021/09/07 09:00:29;;;;;;;31.30;25.38;;;23.90;99.90;;;;;;4212018;28;20359;-74
2021/09/07 09:02:38;;;;;;;32.47;22.95;;;23.90;99.90;;;;;;4213436;28;20460;-74
2021/09/07 09:04:42;;;;;;;23.70;21.20;;;24.00;99.90;;;;;;4210891;28;20387;-73
2021/09/07 09:06:44;;;;;;;26.48;21.65;;;24.00;99.90;;;;;;4212052;28;20039;-74
2021/09/07 09:08:45;;;;;;;28.25;24.77;;;24.30;99.90;;;;;;4211913;28;20040;-72
2021/09/07 09:10:46;;;;;;;33.33;23.65;;;24.70;99.90;;;;;;4213526;28;20058;-74
2021/09/07 09:12:47;;;;;;;31.02;22.65;;;24.60;99.90;;;;;;4210837;28;20055;-75
2021/09/07 09:14:48;;;;;;;33.78;24.33;;;24.50;99.90;;;;;;4187736;28;20119;-75
2021/09/07 09:16:48;;;;;;;31.23;22.10;;;24.30;99.90;;;;;;4192373;28;20530;-74
2021/09/07 09:18:49;;;;;;;29.50;23.88;;;24.10;99.90;;;;;;4208711;28;20472;-73
2021/09/07 09:20:49;;;;;;;28.13;23.20;;;24.00;99.90;;;;;;4211225;28;20048;-74
2021/09/07 09:22:58;;;;;;;25.70;20.65;;;24.00;99.90;;;;;;4212760;28;20036;-73
2021/09/07 09:24:59;;;;;;;27.92;21.08;;;24.20;99.90;;;;;;4209698;28;20039;-73
2021/09/07 09:27:01;;;;;;;23.20;19.13;;;24.30;99.90;;;;;;4187313;28;20387;-73
2021/09/07 09:29:06;;;;;;;22.63;18.83;;;24.40;99.90;;;;;;4210031;28;20348;-74
2021/09/07 09:31:06;;;;;;;24.05;18.85;;;24.60;99.90;;;;;;4210638;28;20085;-73
2021/09/07 09:33:09;;;;;;;26.52;18.90;;;24.80;99.90;;;;;;4190702;28;20032;-73
2021/09/07 09:35:10;;;;;;;;;;;25.00;99.90;;;;;;4189744;28;20033;-73
2021/09/07 09:37:15;;;;;;;26.27;19.80;;;25.20;99.90;;;;;;4210193;28;19911;-74
2021/09/07 09:39:34;;;;;;;25.50;19.63;;;25.20;99.90;;;;;;4193513;28;20079;-73
2021/09/07 09:41:50;;;;;;;24.05;19.45;;;25.50;99.90;;;;;;4212053;28;20074;-74
2021/09/07 09:43:51;;;;;;;25.63;21.88;;;25.50;99.90;;;;;;4195763;28;20055;-74
2021/09/07 09:45:53;;;;;;;27.73;22.20;;;25.60;99.90;;;;;;4201134;28;20045;-73
2021/09/07 09:47:56;;;;;;;25.80;21.60;;;25.50;99.90;;;;;;4193518;28;20043;-73
2021/09/07 09:49:56;;;;;;;23.35;19.75;;;25.70;99.90;;;;;;4205313;28;20037;-73
2021/09/07 09:52:08;;;;;;;25.00;21.30;;;26.00;99.90;;;;;;4209979;28;20552;-73
2021/09/07 09:54:09;;;;;;;21.95;19.60;;;26.40;99.90;;;;;;4211204;28;20039;-74
2021/09/07 09:56:10;;;;;;;22.10;18.63;;;26.70;99.90;;;;;;4191492;28;20036;-74
2021/09/07 09:58:11;;;;;;;21.23;17.80;;;26.90;99.90;;;;;;4205208;28;20028;-74
2021/09/07 10:00:14;;;;;;;24.20;18.23;;;27.00;99.90;;;;;;4194748;28;20024;-74
2021/09/07 10:02:15;;;;;;;20.92;18.75;;;27.10;99.90;;;;;;4211968;28;20031;-73
2021/09/07 10:04:19;;;;;;;21.10;17.45;;;27.20;99.90;;;;;;4208749;28;20074;-73
2021/09/07 10:06:20;;;;;;;20.73;18.48;;;27.20;99.90;;;;;;4206112;28;20077;-75
2021/09/07 10:08:21;;;;;;;20.33;17.13;;;27.60;99.90;;;;;;4210886;28;20033;-74
2021/09/07 10:10:21;;;;;;;20.52;18.02;;;28.10;99.90;;;;;;4191588;28;20025;-73
2021/09/07 10:12:41;;;;;;;22.45;19.02;;;28.10;99.90;;;;;;4206859;28;20043;-74
2021/09/07 10:14:59;;;;;;;25.58;19.73;;;28.30;99.90;;;;;;4209060;28;20032;-73